Time;durP1;ratioP1;P1;durP2;ratioP2;P2;SDS_P1;SDS_P2;PMS_P1;PMS_P2;Temp;Humidity;BMP_temperature;BMP_pressure;BME280_temperature;BME280_humidity;BME280_pressure;Samples;Min_cycle;Max_cycle;Signal;HPM_P1;HPM_P2
2022/06/19 00:01:08;;;;;;;9.82;2.95;;;;;;;;;;5032436;28;20300;-37
2022/06/19 00:03:36;;;;;;;7.10;2.90;;;;;;;;;;5019009;28;20204;-32
2022/06/19 00:06:04;;;;;;;9.65;2.95;;;;;;;;;;5025873;28;20250;-31
2022/06/19 00:08:32;;;;;;;8.05;2.90;;;;;;;;;;5033002;28;20212;-35
2022/06/19 00:11:01;;;;;;;6.97;2.90;;;;;;;;;;5032884;28;20207;-34
2022/06/19 00:13:28;;;;;;;8.70;3.60;;;;;;;;;;5021919;28;20295;-34
2022/06/19 00:15:56;;;;;;;6.05;2.70;;;;;;;;;;5031335;28;20218;-33
2022/06/19 00:18:23;;;;;;;9.65;3.63;;;;;;;;;;5025991;28;20216;-34
2022/06/19 00:20:50;;;;;;;7.35;2.97;;;;;;;;;;5024879;28;20215;-33
2022/06/19 00:23:18;;;;;;;5.85;2.70;;;;;;;;;;5031406;28;20213;-36
2022/06/19 00:25:45;;;;;;;7.10;2.90;;;;;;;;;;5025162;28;20251;-37
2022/06/19 00:28:13;;;;;;;8.77;3.17;;;;;;;;;;5027477;28;20204;-37
2022/06/19 00:30:41;;;;;;;10.20;3.63;;;;;;;;;;5031378;28;20209;-32
2022/06/19 00:33:08;;;;;;;12.07;3.20;;;;;;;;;;5018318;28;20240;-34
2022/06/19 00:35:35;;;;;;;7.47;3.25;;;;;;;;;;5020959;28;20209;-34
2022/06/19 00:38:02;;;;;;;9.27;2.75;;;;;;;;;;5031567;28;20214;-35
2022/06/19 00:40:31;;;;;;;10.48;2.67;;;;;;;;;;5021044;28;20208;-34
2022/06/19 00:42:58;;;;;;;9.73;2.92;;;;;;;;;;5029403;28;20201;-36
2022/06/19 00:45:36;;;;;;;8.30;2.83;;;;;;;;;;5030658;28;20227;-36
2022/06/19 00:48:04;;;;;;;6.47;2.60;;;;;;;;;;5027328;28;20199;-35
2022/06/19 00:50:34;;;;;;;3.22;2.00;;;;;;;;;;5030684;28;20240;-36
2022/06/19 00:53:02;;;;;;;7.10;2.50;;;;;;;;;;5031042;28;20210;-34
2022/06/19 00:55:30;;;;;;;10.13;4.10;;;;;;;;;;5028466;28;20209;-32
2022/06/19 00:58:00;;;;;;;10.25;2.97;;;;;;;;;;5021434;28;20229;-33
2022/06/19 01:00:29;;;;;;;8.43;3.13;;;;;;;;;;5028178;28;20216;-37
2022/06/19 01:02:58;;;;;;;3.63;2.30;;;;;;;;;;5022135;28;20209;-34
2022/06/19 01:05:26;;;;;;;6.97;2.78;;;;;;;;;;5029542;28;20248;-37
2022/06/19 01:07:54;;;;;;;5.68;2.72;;;;;;;;;;5030568;28;20232;-34
2022/06/19 01:10:21;;;;;;;7.00;2.50;;;;;;;;;;5030870;28;20328;-35
2022/06/19 01:12:49;;;;;;;6.13;2.40;;;;;;;;;;5030892;28;20212;-33
2022/06/19 01:15:17;;;;;;;4.68;2.38;;;;;;;;;;5034481;28;20211;-37
2022/06/19 01:17:47;;;;;;;6.38;2.17;;;;;;;;;;5028202;28;20269;-35
2022/06/19 01:20:16;;;;;;;10.82;2.88;;;;;;;;;;5025121;28;20219;-37
2022/06/19 01:22:46;;;;;;;6.03;2.30;;;;;;;;;;5030831;28;20204;-33
2022/06/19 01:25:17;;;;;;;4.10;2.00;;;;;;;;;;5030639;28;20225;-33
2022/06/19 01:30:32;;;;;;;9.43;1.98;;;;;;;;;;5023135;28;20209;-35
2022/06/19 01:33:00;;;;;;;6.63;2.75;;;;;;;;;;5021387;28;20209;-36
2022/06/19 01:35:29;;;;;;;6.63;2.13;;;;;;;;;;5018863;28;20206;-34
2022/06/19 01:37:57;;;;;;;4.78;2.30;;;;;;;;;;5029618;28;20228;-34
2022/06/19 01:40:27;;;;;;;7.65;2.33;;;;;;;;;;5030620;28;20300;-35
2022/06/19 01:42:55;;;;;;;4.40;2.13;;;;;;;;;;5016653;28;20213;-35
2022/06/19 01:45:22;;;;;;;7.07;2.40;;;;;;;;;;5026640;28;20225;-35
2022/06/19 01:47:50;;;;;;;6.65;2.28;;;;;;;;;;5021629;28;20238;-37
2022/06/19 01:50:18;;;;;;;6.30;2.25;;;;;;;;;;5023350;28;20382;-31
2022/06/19 01:52:45;;;;;;;4.13;2.28;;;;;;;;;;5029778;28;20208;-32
2022/06/19 01:55:14;;;;;;;9.85;2.58;;;;;;;;;;5030183;28;20200;-35
2022/06/19 01:57:43;;;;;;;11.82;2.83;;;;;;;;;;5024541;28;20236;-33
2022/06/19 02:00:12;;;;;;;7.10;2.80;;;;;;;;;;5030404;28;20196;-35
2022/06/19 02:02:40;;;;;;;5.05;2.50;;;;;;;;;;5022395;28;20223;-33
2022/06/19 02:05:08;;;;;;;9.10;2.72;;;;;;;;;;5025426;28;20217;-33
2022/06/19 02:07:35;;;;;;;5.55;2.58;;;;;;;;;;5031224;28;20229;-36
2022/06/19 02:10:03;;;;;;;7.80;2.97;;;;;;;;;;5026653;28;20211;-37
2022/06/19 02:12:31;;;;;;;11.20;2.75;;;;;;;;;;5021188;28;20216;-33
2022/06/19 02:15:01;;;;;;;9.30;2.95;;;;;;;;;;5029519;28;20207;-38
2022/06/19 02:17:38;;;;;;;7.85;2.63;;;;;;;;;;5025129;28;20229;-34
2022/06/19 02:20:06;;;;;;;9.40;2.50;;;;;;;;;;5015510;28;20210;-36
2022/06/19 02:22:34;;;;;;;9.23;3.53;;;;;;;;;;5029107;28;20212;-36
2022/06/19 02:25:02;;;;;;;15.63;2.78;;;;;;;;;;5029529;28;20216;-37
2022/06/19 02:27:30;;;;;;;7.90;2.30;;;;;;;;;;5024289;28;20236;-35
2022/06/19 02:29:57;;;;;;;8.38;2.60;;;;;;;;;;5021375;28;20233;-37
2022/06/19 02:32:29;;;;;;;7.93;2.53;;;;;;;;;;5023280;28;20216;-36
2022/06/19 02:34:56;;;;;;;7.80;2.50;;;;;;;;;;5020904;28;20215;-37
2022/06/19 02:37:24;;;;;;;5.65;2.53;;;;;;;;;;5029629;28;20219;-33
2022/06/19 02:39:55;;;;;;;5.90;2.47;;;;;;;;;;5031853;28;20215;-35
2022/06/19 02:42:36;;;;;;;5.18;2.53;;;;;;;;;;5024422;28;20238;-34
2022/06/19 02:45:06;;;;;;;5.03;2.42;;;;;;;;;;5020379;28;20223;-37
2022/06/19 02:47:35;;;;;;;5.18;1.92;;;;;;;;;;5019949;28;20240;-35
2022/06/19 02:50:04;;;;;;;6.28;2.20;;;;;;;;;;5015548;28;20208;-36
2022/06/19 02:52:31;;;;;;;7.47;2.70;;;;;;;;;;5029090;28;20211;-37
2022/06/19 02:54:58;;;;;;;7.05;2.38;;;;;;;;;;5025466;28;20218;-34
2022/06/19 02:57:26;;;;;;;6.05;2.63;;;;;;;;;;5014706;28;20232;-34
2022/06/19 02:59:53;;;;;;;4.93;2.05;;;;;;;;;;5028593;28;20535;-36
2022/06/19 03:02:20;;;;;;;5.60;2.15;;;;;;;;;;5022191;28;20216;-39
2022/06/19 03:04:51;;;;;;;6.13;2.70;;;;;;;;;;5013438;28;20205;-39
2022/06/19 03:07:18;;;;;;;3.83;2.28;;;;;;;;;;5029069;28;20220;-35
2022/06/19 03:09:45;;;;;;;5.90;2.55;;;;;;;;;;5029370;28;20205;-36
2022/06/19 03:12:12;;;;;;;11.85;2.70;;;;;;;;;;5022739;28;20205;-38
2022/06/19 03:14:39;;;;;;;5.80;2.28;;;;;;;;;;5026129;28;20246;-39
2022/06/19 03:17:07;;;;;;;9.15;3.33;;;;;;;;;;5024101;28;20224;-38
2022/06/19 03:19:34;;;;;;;6.93;3.25;;;;;;;;;;5018462;28;20208;-37
2022/06/19 03:22:03;;;;;;;13.73;3.60;;;;;;;;;;5029770;28;20201;-38
2022/06/19 03:24:30;;;;;;;7.00;3.20;;;;;;;;;;5029697;28;20208;-39
2022/06/19 03:26:57;;;;;;;5.60;2.80;;;;;;;;;;5025192;28;20232;-35
2022/06/19 03:29:25;;;;;;;6.70;2.50;;;;;;;;;;5013206;28;20215;-36
2022/06/19 03:31:52;;;;;;;4.63;2.53;;;;;;;;;;5025064;28;20213;-34
2022/06/19 03:34:19;;;;;;;8.93;2.65;;;;;;;;;;5014971;28;20201;-37
2022/06/19 03:36:46;;;;;;;8.27;2.47;;;;;;;;;;5030494;28;20220;-37
2022/06/19 03:39:14;;;;;;;5.05;2.13;;;;;;;;;;5032340;28;20212;-37
2022/06/19 03:41:42;;;;;;;7.70;2.35;;;;;;;;;;5026932;28;20212;-38
2022/06/19 03:44:09;;;;;;;6.80;2.42;;;;;;;;;;5031923;28;20290;-34
2022/06/19 03:46:36;;;;;;;4.35;2.30;;;;;;;;;;5032206;28;20239;-38
2022/06/19 03:49:04;;;;;;;4.63;2.35;;;;;;;;;;5022903;28;20204;-35
2022/06/19 03:51:31;;;;;;;6.60;2.97;;;;;;;;;;5031606;28;20215;-38
2022/06/19 03:53:58;;;;;;;3.80;1.98;;;;;;;;;;5032101;28;20214;-38
2022/06/19 03:56:28;;;;;;;7.35;2.35;;;;;;;;;;5024968;28;20235;-35
2022/06/19 03:58:55;;;;;;;8.45;2.47;;;;;;;;;;5025957;28;20198;-38
2022/06/19 04:01:23;;;;;;;6.78;2.15;;;;;;;;;;5035778;28;20209;-34
2022/06/19 04:03:51;;;;;;;7.47;2.33;;;;;;;;;;5022658;28;20207;-36
2022/06/19 04:06:19;;;;;;;5.35;2.20;;;;;;;;;;5029594;28;20228;-33
2022/06/19 04:08:47;;;;;;;5.97;2.95;;;;;;;;;;5035963;28;20209;-38
2022/06/19 04:11:14;;;;;;;6.38;2.30;;;;;;;;;;5032657;28;20203;-36
2022/06/19 04:13:43;;;;;;;4.95;2.42;;;;;;;;;;5036120;28;20214;-36
2022/06/19 04:16:14;;;;;;;3.83;2.15;;;;;;;;;;5035217;28;20236;-35
2022/06/19 04:18:41;;;;;;;12.75;3.00;;;;;;;;;;5022662;28;20208;-35
2022/06/19 04:21:12;;;;;;;6.63;2.75;;;;;;;;;;5033589;28;20199;-34
2022/06/19 04:23:39;;;;;;;5.05;2.50;;;;;;;;;;5034034;28;20214;-38
2022/06/19 04:26:08;;;;;;;8.82;2.83;;;;;;;;;;5022843;28;20700;-34
2022/06/19 04:28:35;;;;;;;5.28;2.50;;;;;;;;;;5033790;28;20202;-35
2022/06/19 04:31:04;;;;;;;4.90;2.08;;;;;;;;;;5034293;28;20207;-38
2022/06/19 04:33:32;;;;;;;6.20;2.53;;;;;;;;;;5017178;28;20218;-40
2022/06/19 04:35:59;;;;;;;4.47;1.95;;;;;;;;;;5033294;28;20229;-35
2022/06/19 04:38:28;;;;;;;7.43;2.47;;;;;;;;;;5033867;28;20203;-36
2022/06/19 04:40:56;;;;;;;9.43;2.17;;;;;;;;;;5030008;28;20327;-36
2022/06/19 04:43:23;;;;;;;6.53;2.70;;;;;;;;;;5021263;28;20213;-38
2022/06/19 04:45:50;;;;;;;5.10;2.22;;;;;;;;;;5033251;28;20220;-38
2022/06/19 04:48:19;;;;;;;10.20;2.50;;;;;;;;;;5020241;28;20209;-37
2022/06/19 04:50:46;;;;;;;5.45;2.15;;;;;;;;;;5031775;28;20219;-36
2022/06/19 04:53:13;;;;;;;9.02;2.60;;;;;;;;;;5033616;28;20222;-36
2022/06/19 04:55:40;;;;;;;2.92;2.20;;;;;;;;;;5032391;28;20199;-35
2022/06/19 04:58:07;;;;;;;7.32;2.35;;;;;;;;;;5023529;28;20205;-36
2022/06/19 05:00:35;;;;;;;4.20;2.10;;;;;;;;;;5030484;28;20211;-36
2022/06/19 05:03:02;;;;;;;9.38;2.75;;;;;;;;;;5027005;28;20216;-39
2022/06/19 05:05:31;;;;;;;7.68;2.75;;;;;;;;;;5033193;28;20359;-38
2022/06/19 05:07:58;;;;;;;6.78;2.50;;;;;;;;;;5033644;28;20218;-35
2022/06/19 05:10:25;;;;;;;7.72;2.97;;;;;;;;;;5031341;28;20205;-36
2022/06/19 05:12:56;;;;;;;8.23;3.13;;;;;;;;;;5029473;28;20217;-35
2022/06/19 05:15:23;;;;;;;7.47;2.60;;;;;;;;;;5034392;28;20219;-36
2022/06/19 05:17:50;;;;;;;7.78;2.72;;;;;;;;;;5028652;28;20237;-36
2022/06/19 05:20:18;;;;;;;6.13;2.50;;;;;;;;;;5033517;28;20209;-35
2022/06/19 05:22:46;;;;;;;6.15;2.95;;;;;;;;;;5033544;28;20209;-38
2022/06/19 05:25:13;;;;;;;9.75;3.13;;;;;;;;;;5033573;28;20209;-36
2022/06/19 05:27:43;;;;;;;6.63;2.60;;;;;;;;;;5023059;28;20699;-37
2022/06/19 05:30:11;;;;;;;9.57;3.20;;;;;;;;;;5026684;28;20210;-38
2022/06/19 05:32:39;;;;;;;5.10;2.60;;;;;;;;;;5024112;28;20214;-36
2022/06/19 05:35:06;;;;;;;11.32;3.13;;;;;;;;;;5026851;28;20209;-38
2022/06/19 05:37:33;;;;;;;8.52;2.72;;;;;;;;;;5031980;28;20215;-36
2022/06/19 05:40:02;;;;;;;6.72;2.63;;;;;;;;;;5027513;28;20213;-38
2022/06/19 05:42:30;;;;;;;10.40;2.85;;;;;;;;;;5029026;28;20214;-36
2022/06/19 05:44:57;;;;;;;6.90;2.70;;;;;;;;;;5032972;28;20203;-37
2022/06/19 05:47:24;;;;;;;6.57;2.80;;;;;;;;;;5025972;28;20231;-34
2022/06/19 05:49:51;;;;;;;8.48;2.80;;;;;;;;;;5024664;28;20698;-35
2022/06/19 05:54:47;;;;;;;6.95;2.63;;;;;;;;;;5012413;28;20318;-32
2022/06/19 05:57:15;;;;;;;5.25;2.88;;;;;;;;;;5014764;28;20245;-37
2022/06/19 05:59:43;;;;;;;9.27;3.63;;;;;;;;;;5029020;28;20202;-30
2022/06/19 06:02:11;;;;;;;3.88;2.30;;;;;;;;;;5025946;28;20214;-33
2022/06/19 06:04:39;;;;;;;9.00;2.75;;;;;;;;;;5016041;28;20208;-35
2022/06/19 06:07:07;;;;;;;7.80;2.80;;;;;;;;;;5021215;28;20259;-38
2022/06/19 06:09:35;;;;;;;7.38;2.97;;;;;;;;;;5012879;28;20203;-38
2022/06/19 06:12:02;;;;;;;7.68;2.72;;;;;;;;;;5014422;28;20228;-35
2022/06/19 06:14:30;;;;;;;6.72;3.10;;;;;;;;;;5014527;28;20234;-38
2022/06/19 06:16:58;;;;;;;5.07;2.65;;;;;;;;;;5012556;28;20222;-36
2022/06/19 06:19:25;;;;;;;7.68;2.72;;;;;;;;;;5028520;28;20209;-38
2022/06/19 06:21:52;;;;;;;7.13;2.83;;;;;;;;;;5024234;28;20209;-39
2022/06/19 06:24:19;;;;;;;6.40;2.92;;;;;;;;;;5033158;28;20210;-41
2022/06/19 06:26:47;;;;;;;8.85;2.60;;;;;;;;;;5021677;28;20226;-33
2022/06/19 06:29:16;;;;;;;6.68;2.55;;;;;;;;;;5024566;28;20210;-35
2022/06/19 06:31:44;;;;;;;8.90;2.58;;;;;;;;;;5012893;28;20199;-35
2022/06/19 06:34:11;;;;;;;6.80;2.58;;;;;;;;;;5021811;28;20213;-40
2022/06/19 06:36:38;;;;;;;7.85;2.80;;;;;;;;;;5025026;28;20223;-36
2022/06/19 06:39:06;;;;;;;6.03;2.83;;;;;;;;;;5032919;28;20206;-32
2022/06/19 06:41:33;;;;;;;6.70;2.78;;;;;;;;;;5030639;28;20217;-34
2022/06/19 06:44:00;;;;;;;5.75;3.08;;;;;;;;;;5030638;28;20667;-36
2022/06/19 06:46:28;;;;;;;10.40;2.83;;;;;;;;;;5016497;28;20233;-33
2022/06/19 06:48:59;;;;;;;3.58;2.63;;;;;;;;;;5025389;28;20213;-40
2022/06/19 06:51:27;;;;;;;6.30;3.50;;;;;;;;;;5024982;28;20253;-37
2022/06/19 06:53:55;;;;;;;6.82;3.00;;;;;;;;;;5012131;28;20225;-37
2022/06/19 06:56:22;;;;;;;9.25;3.28;;;;;;;;;;5012908;28;20222;-33
2022/06/19 06:58:49;;;;;;;11.27;3.20;;;;;;;;;;5019184;28;20265;-38
2022/06/19 07:01:18;;;;;;;9.02;3.17;;;;;;;;;;5032456;28;20202;-41
2022/06/19 07:03:45;;;;;;;8.98;2.88;;;;;;;;;;5014617;28;20207;-37
2022/06/19 07:06:14;;;;;;;7.32;2.78;;;;;;;;;;5025988;28;20226;-32
2022/06/19 07:08:47;;;;;;;7.97;2.80;;;;;;;;;;5032332;28;20203;-39
2022/06/19 07:11:16;;;;;;;10.73;2.78;;;;;;;;;;5028277;28;20202;-39
2022/06/19 07:13:43;;;;;;;6.93;3.17;;;;;;;;;;5026790;28;20218;-42
2022/06/19 07:16:10;;;;;;;11.38;2.92;;;;;;;;;;5032228;28;20325;-41
2022/06/19 07:18:37;;;;;;;6.47;2.85;;;;;;;;;;5024363;28;20207;-39
2022/06/19 07:21:04;;;;;;;9.73;2.67;;;;;;;;;;5018867;28;20203;-33
2022/06/19 07:23:33;;;;;;;10.35;3.10;;;;;;;;;;5028633;28;20203;-37
2022/06/19 07:26:00;;;;;;;8.25;3.05;;;;;;;;;;5022141;28;20250;-32
2022/06/19 07:28:27;;;;;;;8.07;3.00;;;;;;;;;;5031481;28;20211;-37
2022/06/19 07:30:55;;;;;;;9.38;2.70;;;;;;;;;;5010053;28;20211;-36
2022/06/19 07:33:22;;;;;;;10.00;2.90;;;;;;;;;;5019170;28;20217;-33
2022/06/19 07:35:49;;;;;;;6.28;2.85;;;;;;;;;;5024626;28;20213;-37
2022/06/19 07:38:17;;;;;;;5.82;2.60;;;;;;;;;;5035498;28;20281;-35
2022/06/19 07:40:45;;;;;;;9.10;3.35;;;;;;;;;;5030502;28;20237;-37
2022/06/19 07:43:13;;;;;;;5.05;2.50;;;;;;;;;;5021508;28;20217;-38
2022/06/19 07:45:41;;;;;;;7.40;2.88;;;;;;;;;;5033222;28;20206;-34
2022/06/19 07:50:53;;;;;;;14.88;3.05;;;;;;;;;;5017299;28;20206;-36
2022/06/19 07:53:20;;;;;;;9.25;3.45;;;;;;;;;;5016011;28;20219;-37
2022/06/19 07:55:49;;;;;;;8.35;3.25;;;;;;;;;;5018528;28;20221;-35
2022/06/19 07:58:16;;;;;;;7.90;2.80;;;;;;;;;;5030177;28;20213;-36
2022/06/19 08:00:43;;;;;;;10.85;3.17;;;;;;;;;;5017495;28;20209;-32
2022/06/19 08:03:10;;;;;;;12.23;3.00;;;;;;;;;;5014640;28;20199;-35
2022/06/19 08:05:38;;;;;;;7.38;3.00;;;;;;;;;;5031076;28;20213;-41
2022/06/19 08:08:06;;;;;;;11.23;3.30;;;;;;;;;;5015622;28;20313;-34
2022/06/19 08:10:35;;;;;;;8.77;2.97;;;;;;;;;;5014415;28;20215;-33
2022/06/19 08:13:03;;;;;;;7.72;2.92;;;;;;;;;;5021353;28;20202;-29
2022/06/19 08:15:31;;;;;;;8.35;2.95;;;;;;;;;;5019073;28;20305;-34
2022/06/19 08:17:58;;;;;;;11.23;3.13;;;;;;;;;;5018919;28;20233;-38
2022/06/19 08:20:25;;;;;;;11.52;3.22;;;;;;;;;;5022610;28;20217;-37
2022/06/19 08:22:53;;;;;;;8.88;3.33;;;;;;;;;;5012362;28;20210;-33
2022/06/19 08:25:21;;;;;;;7.20;3.20;;;;;;;;;;5014718;28;20215;-33
2022/06/19 08:27:49;;;;;;;10.48;3.03;;;;;;;;;;5024447;28;20230;-36
2022/06/19 08:30:18;;;;;;;12.30;3.83;;;;;;;;;;5020196;28;20210;-37
2022/06/19 08:32:46;;;;;;;9.25;3.40;;;;;;;;;;5025949;28;20207;-36
2022/06/19 08:35:13;;;;;;;9.40;3.50;;;;;;;;;;5029025;28;20208;-37
2022/06/19 08:37:42;;;;;;;8.65;3.28;;;;;;;;;;5032608;28;20218;-32
2022/06/19 08:40:13;;;;;;;9.05;3.13;;;;;;;;;;5034592;28;20210;-34
2022/06/19 08:42:45;;;;;;;8.32;3.40;;;;;;;;;;5019731;28;20211;-35
2022/06/19 08:45:23;;;;;;;8.07;3.25;;;;;;;;;;5025464;28;20191;-30
2022/06/19 08:48:08;;;;;;;9.18;3.67;;;;;;;;;;5017523;28;20238;-40
2022/06/19 08:50:36;;;;;;;9.27;3.53;;;;;;;;;;5032283;28;20213;-34
2022/06/19 08:53:20;;;;;;;12.65;4.40;;;;;;;;;;5034572;28;20509;-36
2022/06/19 08:56:03;;;;;;;11.32;4.70;;;;;;;;;;5034433;28;20209;-41
2022/06/19 08:58:33;;;;;;;10.90;4.50;;;;;;;;;;5016300;28;20199;-36
2022/06/19 09:01:06;;;;;;;9.50;4.70;;;;;;;;;;5034220;28;20194;-36
2022/06/19 09:06:23;;;;;;;11.77;5.15;;;;;;;;;;5019528;28;20217;-36
2022/06/19 09:08:57;;;;;;;13.13;5.28;;;;;;;;;;5015149;28;20219;-34
2022/06/19 09:11:30;;;;;;;13.43;5.68;;;;;;;;;;5015962;28;20213;-36
2022/06/19 09:14:04;;;;;;;10.00;5.18;;;;;;;;;;5025817;28;20278;-38
2022/06/19 09:16:37;;;;;;;12.20;5.65;;;;;;;;;;5024208;28;20312;-37
2022/06/19 09:19:11;;;;;;;12.63;5.70;;;;;;;;;;5025105;28;20199;-38
2022/06/19 09:21:43;;;;;;;11.70;6.03;;;;;;;;;;5022012;28;20199;-36
2022/06/19 09:24:17;;;;;;;9.63;5.28;;;;;;;;;;5014242;28;20202;-38
2022/06/19 09:26:46;;;;;;;11.40;5.43;;;;;;;;;;5030504;28;20321;-37
2022/06/19 09:29:15;;;;;;;8.85;5.50;;;;;;;;;;5025346;28;20282;-31
2022/06/19 09:31:48;;;;;;;11.60;5.90;;;;;;;;;;5032064;28;20230;-39
2022/06/19 09:34:18;;;;;;;17.25;6.28;;;;;;;;;;5028604;28;20246;-40
2022/06/19 09:36:48;;;;;;;14.65;6.20;;;;;;;;;;5016883;28;20219;-38
2022/06/19 09:39:18;;;;;;;10.63;5.90;;;;;;;;;;5033599;28;20220;-40
2022/06/19 09:41:47;;;;;;;14.13;7.00;;;;;;;;;;5030637;28;20207;-38
2022/06/19 09:44:16;;;;;;;14.55;6.10;;;;;;;;;;5020639;28;20206;-32
2022/06/19 09:46:48;;;;;;;14.18;6.75;;;;;;;;;;5031733;28;20234;-32
2022/06/19 09:49:18;;;;;;;9.52;6.22;;;;;;;;;;5018300;28;20202;-37
2022/06/19 09:51:49;;;;;;;12.70;6.72;;;;;;;;;;5024813;28;20206;-32
2022/06/19 09:54:17;;;;;;;11.15;6.10;;;;;;;;;;5030448;28;20214;-40
2022/06/19 09:56:49;;;;;;;14.77;6.88;;;;;;;;;;5025315;28;20240;-36
2022/06/19 09:59:19;;;;;;;13.98;6.80;;;;;;;;;;5013144;28;20234;-39
2022/06/19 10:01:55;;;;;;;16.00;6.93;;;;;;;;;;5012647;28;20203;-39
2022/06/19 10:04:24;;;;;;;14.68;7.50;;;;;;;;;;5019617;28;20226;-34
2022/06/19 10:06:52;;;;;;;12.15;7.25;;;;;;;;;;5012652;28;20223;-38
2022/06/19 10:09:24;;;;;;;15.65;8.23;;;;;;;;;;5013295;28;20207;-38
2022/06/19 10:11:54;;;;;;;12.13;8.40;;;;;;;;;;5012316;28;20214;-37
2022/06/19 10:14:26;;;;;;;10.75;7.43;;;;;;;;;;5012785;28;20302;-37
2022/06/19 10:16:57;;;;;;;14.27;8.00;;;;;;;;;;5013612;28;20219;-35
2022/06/19 10:19:25;;;;;;;14.07;8.48;;;;;;;;;;5027113;28;20199;-32
2022/06/19 10:22:14;;;;;;;13.05;8.07;;;;;;;;;;5028783;28;20199;-33
2022/06/19 10:24:45;;;;;;;12.23;7.90;;;;;;;;;;5012369;28;20194;-31
2022/06/19 10:27:17;;;;;;;12.35;8.40;;;;;;;;;;5022147;28;20226;-34
2022/06/19 10:29:49;;;;;;;11.65;7.38;;;;;;;;;;5012572;28;20195;-34
2022/06/19 10:32:24;;;;;;;10.75;7.80;;;;;;;;;;5015442;28;20201;-39
2022/06/19 10:34:56;;;;;;;11.75;8.30;;;;;;;;;;5028499;28;20233;-37
2022/06/19 10:37:31;;;;;;;12.20;7.60;;;;;;;;;;5027888;28;20214;-41
2022/06/19 10:40:03;;;;;;;15.57;8.13;;;;;;;;;;5032723;28;20186;-34
2022/06/19 10:42:33;;;;;;;11.45;8.38;;;;;;;;;;5019611;28;20991;-33
2022/06/19 10:45:15;;;;;;;18.83;8.48;;;;;;;;;;5032314;28;20285;-38
2022/06/19 10:47:54;;;;;;;12.23;8.55;;;;;;;;;;5019248;28;20230;-38
2022/06/19 10:50:26;;;;;;;14.95;8.18;;;;;;;;;;5018478;28;20211;-34
2022/06/19 10:52:56;;;;;;;10.70;6.78;;;;;;;;;;5019598;28;20304;-33
2022/06/19 10:55:28;;;;;;;9.15;6.93;;;;;;;;;;5012409;28;20191;-36
2022/06/19 10:58:02;;;;;;;10.05;6.97;;;;;;;;;;5019044;28;20317;-34
2022/06/19 11:00:30;;;;;;;10.65;5.75;;;;;;;;;;5015710;28;20206;-36
2022/06/19 11:05:49;;;;;;;14.50;7.32;;;;;;;;;;5032001;28;20210;-37
2022/06/19 11:08:18;;;;;;;14.07;7.57;;;;;;;;;;5020261;28;20223;-38
2022/06/19 11:10:46;;;;;;;18.25;7.53;;;;;;;;;;5017299;28;20211;-34
2022/06/19 11:13:14;;;;;;;13.43;6.88;;;;;;;;;;5030321;28;20252;-40
2022/06/19 11:15:43;;;;;;;12.00;7.38;;;;;;;;;;5025957;28;20261;-36
2022/06/19 11:18:15;;;;;;;14.93;6.95;;;;;;;;;;5023548;28;20198;-38
2022/06/19 11:20:44;;;;;;;14.75;6.63;;;;;;;;;;5019837;28;20207;-32
2022/06/19 11:23:21;;;;;;;15.25;7.30;;;;;;;;;;5016229;28;20199;-32
2022/06/19 11:25:55;;;;;;;16.30;7.15;;;;;;;;;;5015708;28;20264;-39
2022/06/19 11:28:22;;;;;;;13.05;8.07;;;;;;;;;;5026245;28;20234;-38
2022/06/19 11:30:51;;;;;;;15.70;7.35;;;;;;;;;;5027182;28;20206;-33
2022/06/19 11:33:21;;;;;;;15.68;7.65;;;;;;;;;;5028511;28;20202;-37
2022/06/19 11:35:51;;;;;;;11.75;6.78;;;;;;;;;;5015125;28;20211;-33
2022/06/19 11:38:19;;;;;;;14.80;6.40;;;;;;;;;;5028471;28;20213;-42
2022/06/19 11:40:49;;;;;;;12.18;6.18;;;;;;;;;;5026639;28;20213;-38
2022/06/19 11:43:27;;;;;;;13.65;6.60;;;;;;;;;;5024192;28;20260;-30
2022/06/19 11:45:59;;;;;;;15.95;6.38;;;;;;;;;;5023916;28;20513;-40
2022/06/19 11:48:28;;;;;;;13.55;5.80;;;;;;;;;;5019126;28;20219;-35
2022/06/19 11:50:55;;;;;;;11.43;5.55;;;;;;;;;;5031704;28;20275;-34
2022/06/19 11:55:52;;;;;;;12.07;5.35;;;;;;;;;;5032904;28;20699;-31
2022/06/19 11:58:26;;;;;;;10.98;5.43;;;;;;;;;;5026862;28;20212;-29
2022/06/19 12:01:03;;;;;;;14.88;5.40;;;;;;;;;;5017536;28;20190;-30
2022/06/19 12:03:33;;;;;;;13.25;5.60;;;;;;;;;;5018119;28;20294;-32
2022/06/19 12:06:01;;;;;;;16.35;5.72;;;;;;;;;;5014531;28;20575;-31
2022/06/19 12:08:30;;;;;;;14.25;5.85;;;;;;;;;;5030538;28;20218;-32
2022/06/19 12:10:59;;;;;;;9.80;5.43;;;;;;;;;;5033882;28;20209;-32
2022/06/19 12:13:28;;;;;;;13.73;5.55;;;;;;;;;;5027161;28;20210;-32
2022/06/19 12:15:59;;;;;;;11.10;5.38;;;;;;;;;;5016368;28;20218;-34
2022/06/19 12:18:26;;;;;;;10.55;5.63;;;;;;;;;;5025529;28;20210;-29
2022/06/19 12:20:59;;;;;;;13.50;5.25;;;;;;;;;;5013780;28;20206;-34
2022/06/19 12:23:29;;;;;;;9.73;5.18;;;;;;;;;;5030019;28;20563;-32
2022/06/19 12:25:58;;;;;;;10.07;5.47;;;;;;;;;;5031275;28;20250;-29
2022/06/19 12:28:27;;;;;;;11.50;6.10;;;;;;;;;;5018060;28;20223;-31
2022/06/19 12:30:57;;;;;;;10.65;5.65;;;;;;;;;;5022083;28;20210;-32
2022/06/19 12:33:27;;;;;;;12.50;5.65;;;;;;;;;;5014407;28;20207;-33
2022/06/19 12:35:54;;;;;;;11.82;5.53;;;;;;;;;;5021887;28;20789;-31
2022/06/19 12:38:24;;;;;;;14.88;5.63;;;;;;;;;;5014817;28;20203;-34
2022/06/19 12:41:07;;;;;;;11.63;5.30;;;;;;;;;;5015025;28;20207;-33
2022/06/19 12:43:42;;;;;;;9.45;5.05;;;;;;;;;;5022614;28;20679;-31
2022/06/19 12:46:12;;;;;;;9.90;5.50;;;;;;;;;;5029222;28;20225;-32
2022/06/19 12:48:45;;;;;;;11.93;5.15;;;;;;;;;;5014547;28;20577;-32
2022/06/19 12:51:14;;;;;;;10.95;5.82;;;;;;;;;;5020323;28;20199;-31
2022/06/19 12:53:54;;;;;;;11.35;4.78;;;;;;;;;;5033543;28;20256;-31
2022/06/19 12:56:26;;;;;;;11.38;4.63;;;;;;;;;;5030221;28;20227;-31
2022/06/19 12:59:03;;;;;;;11.48;5.18;;;;;;;;;;5013628;28;20415;-33
2022/06/19 13:01:36;;;;;;;12.75;4.53;;;;;;;;;;5013770;28;20201;-32
2022/06/19 13:04:13;;;;;;;8.77;4.85;;;;;;;;;;5019126;28;20210;-32
2022/06/19 13:06:58;;;;;;;15.88;4.60;;;;;;;;;;5031309;28;20249;-32
2022/06/19 13:09:36;;;;;;;8.95;4.00;;;;;;;;;;5033652;28;20236;-30
2022/06/19 13:12:10;;;;;;;13.60;5.30;;;;;;;;;;5027712;28;20673;-30
2022/06/19 13:14:46;;;;;;;12.18;5.00;;;;;;;;;;5030352;28;20202;-33
2022/06/19 13:17:18;;;;;;;15.13;4.90;;;;;;;;;;5013472;28;20227;-32
2022/06/19 13:19:54;;;;;;;7.88;5.20;;;;;;;;;;5015417;28;20208;-32
2022/06/19 13:22:24;;;;;;;6.78;4.53;;;;;;;;;;5012433;28;20201;-32
2022/06/19 13:24:57;;;;;;;15.02;4.90;;;;;;;;;;5012471;28;20203;-32
2022/06/19 13:27:31;;;;;;;12.13;4.68;;;;;;;;;;5019908;28;20598;-34
2022/06/19 13:30:10;;;;;;;11.93;4.75;;;;;;;;;;5032022;28;20388;-31
2022/06/19 13:32:41;;;;;;;13.23;4.68;;;;;;;;;;5017920;28;20214;-31
2022/06/19 13:35:22;;;;;;;10.40;4.80;;;;;;;;;;5019170;28;20227;-31
2022/06/19 13:38:02;;;;;;;12.25;4.72;;;;;;;;;;5023824;28;20245;-31
2022/06/19 13:40:37;;;;;;;11.90;4.57;;;;;;;;;;5033672;28;20193;-34
2022/06/19 13:43:15;;;;;;;15.45;4.95;;;;;;;;;;5015592;28;20252;-31
2022/06/19 13:45:51;;;;;;;9.18;4.85;;;;;;;;;;5021533;28;20285;-33
2022/06/19 13:48:21;;;;;;;15.57;5.43;;;;;;;;;;5014751;28;20210;-31
2022/06/19 13:50:50;;;;;;;13.73;4.78;;;;;;;;;;5023625;28;20803;-34
2022/06/19 13:53:21;;;;;;;12.82;4.72;;;;;;;;;;5013834;28;20665;-33
2022/06/19 13:55:55;;;;;;;10.60;5.15;;;;;;;;;;5013394;28;20215;-33
2022/06/19 13:58:28;;;;;;;9.57;4.65;;;;;;;;;;5015935;28;20645;-31
2022/06/19 14:01:00;;;;;;;12.68;4.93;;;;;;;;;;5033225;28;20214;-31
2022/06/19 14:06:40;;;;;;;12.98;4.30;;;;;;;;;;4996903;28;20706;-32
2022/06/19 14:09:15;;;;;;;10.93;4.50;;;;;;;;;;5032939;28;20598;-32
2022/06/19 14:14:31;;;;;;;11.23;4.63;;;;;;;;;;5015086;28;20800;-35
2022/06/19 14:17:02;;;;;;;14.07;4.50;;;;;;;;;;5022670;28;20699;-32
2022/06/19 14:19:34;;;;;;;11.98;4.55;;;;;;;;;;5028623;28;20233;-31
2022/06/19 14:22:15;;;;;;;14.10;4.65;;;;;;;;;;5029040;28;20188;-28
2022/06/19 14:24:47;;;;;;;12.25;4.32;;;;;;;;;;5015401;28;20242;-30
2022/06/19 14:27:26;;;;;;;15.38;4.45;;;;;;;;;;5020590;28;20222;-32
2022/06/19 14:29:55;;;;;;;9.15;5.07;;;;;;;;;;5032969;28;20549;-29
2022/06/19 14:32:25;;;;;;;11.23;4.90;;;;;;;;;;5026284;28;20210;-32
2022/06/19 14:34:54;;;;;;;15.43;5.50;;;;;;;;;;5023464;28;20198;-31
2022/06/19 14:37:35;;;;;;;9.15;4.53;;;;;;;;;;5022197;28;20230;-31
2022/06/19 14:40:05;;;;;;;8.65;4.07;;;;;;;;;;5026461;28;20217;-34
2022/06/19 14:42:48;;;;;;;14.43;4.50;;;;;;;;;;5018657;28;20206;-34
2022/06/19 14:45:19;;;;;;;9.88;4.15;;;;;;;;;;5032351;28;20187;-33
2022/06/19 14:47:54;;;;;;;13.70;3.97;;;;;;;;;;5024544;28;20227;-30
2022/06/19 14:50:28;;;;;;;12.68;4.25;;;;;;;;;;5029921;28;20221;-32
2022/06/19 14:53:10;;;;;;;11.98;4.88;;;;;;;;;;5024205;28;20277;-35
2022/06/19 14:55:42;;;;;;;8.45;3.85;;;;;;;;;;5030054;28;20224;-34
2022/06/19 14:58:19;;;;;;;10.75;3.90;;;;;;;;;;5015461;28;20199;-30
2022/06/19 15:00:50;;;;;;;11.45;4.90;;;;;;;;;;5022884;28;20717;-31
2022/06/19 15:03:25;;;;;;;13.55;4.05;;;;;;;;;;5022902;28;20210;-31
2022/06/19 15:05:54;;;;;;;8.10;4.00;;;;;;;;;;5031942;28;20198;-33
2022/06/19 15:08:25;;;;;;;13.45;4.07;;;;;;;;;;5017727;28;20576;-31
2022/06/19 15:10:54;;;;;;;10.50;4.20;;;;;;;;;;5012908;28;20207;-31
2022/06/19 15:13:25;;;;;;;9.90;4.32;;;;;;;;;;5013584;28;20731;-35
2022/06/19 15:15:53;;;;;;;12.85;4.47;;;;;;;;;;5020462;28;20206;-30